createdAt,value
2022-11-18T00:01:22.637Z,99504.97
2022-11-18T00:03:51.320Z,99510.72
2022-11-18T00:06:21.689Z,99509.75
2022-11-18T00:08:49.619Z,99517.25
2022-11-18T00:11:39.532Z,99518.81
2022-11-18T00:14:20.900Z,99506.72
2022-11-18T00:17:03.353Z,99506.72
2022-11-18T00:19:36.421Z,99521.94
2022-11-18T00:22:05.469Z,99518.59
2022-11-18T00:24:33.365Z,99516.94
2022-11-18T00:27:00.644Z,99518.75
2022-11-18T00:29:28.816Z,99522.94
2022-11-18T00:31:57.514Z,99514.31
2022-11-18T00:34:26.121Z,99516.81
2022-11-18T00:36:53.773Z,99518.53
2022-11-18T00:39:21.861Z,99515.03
2022-11-18T00:42:08.712Z,99511.59
2022-11-18T00:44:37.276Z,99506.31
2022-11-18T00:47:05.291Z,99523.22
2022-11-18T00:49:32.555Z,99524.88
2022-11-18T00:52:00.053Z,99524.66
2022-11-18T00:54:27.234Z,99527.13
2022-11-18T00:56:54.642Z,99527.13
2022-11-18T00:59:22.111Z,99533.06
2022-11-18T01:01:50.555Z,99526.28
2022-11-18T01:04:18.047Z,99529.81
2022-11-18T01:06:45.214Z,99522.25
2022-11-18T01:09:12.509Z,99535.03
2022-11-18T01:11:58.177Z,99517.91
2022-11-18T01:14:26.237Z,99517.91
2022-11-18T01:16:57.298Z,99524.66
2022-11-18T01:19:25.485Z,99505.75
2022-11-18T01:21:53.108Z,99527.13
2022-11-18T01:24:20.550Z,99519.50
2022-11-18T01:26:47.795Z,99513.47
2022-11-18T01:29:16.130Z,99509.16
2022-11-18T01:32:01.810Z,99511.72
2022-11-18T01:34:30.768Z,99514.25
2022-11-18T01:36:58.880Z,99506.56
2022-11-18T01:39:26.162Z,99509.09
2022-11-18T01:41:53.628Z,99509.88
2022-11-18T01:44:58.626Z,99529.47
2022-11-18T01:47:45.103Z,99517.69
2022-11-18T01:50:15.741Z,99519.50
2022-11-18T01:52:47.407Z,99511.06
2022-11-18T01:55:24.067Z,99507.88
2022-11-18T01:57:53.382Z,99497.78
2022-11-18T02:00:21.184Z,99497.84
2022-11-18T02:02:49.437Z,99506.50
2022-11-18T02:05:17.783Z,99504.88
2022-11-18T02:07:45.325Z,99470.53
2022-11-18T02:10:25.284Z,99484.50
2022-11-18T02:12:54.810Z,99490.50
2022-11-18T02:15:44.383Z,99483.00
2022-11-18T02:18:20.075Z,99486.41
2022-11-18T02:20:51.613Z,99478.91
2022-11-18T02:23:40.339Z,99486.72
2022-11-18T02:26:49.692Z,99485.84
2022-11-18T02:29:24.501Z,99489.97
2022-11-18T02:32:13.818Z,99486.63
2022-11-18T02:34:58.440Z,99486.72
2022-11-18T02:37:39.345Z,99483.25
2022-11-18T02:40:15.545Z,99478.13
2022-11-18T02:42:46.388Z,99487.31
2022-11-18T02:45:17.910Z,99500.94
2022-11-18T02:47:48.802Z,99486.41
2022-11-18T02:50:21.634Z,99489.97
2022-11-18T02:52:53.686Z,99497.84
2022-11-18T02:55:24.040Z,99500.31
2022-11-18T02:57:53.237Z,99504.59
2022-11-18T03:00:20.669Z,99517.03
2022-11-18T03:02:50.324Z,99516.88
2022-11-18T03:05:46.019Z,99508.47
2022-11-18T03:08:20.019Z,99526.25
2022-11-18T03:10:59.409Z,99518.53
2022-11-18T03:14:08.264Z,99511.88
2022-11-18T03:17:04.118Z,99507.63
2022-11-18T03:20:26.393Z,99514.25
2022-11-18T03:23:01.221Z,99513.28
2022-11-18T03:25:45.683Z,99504.69
2022-11-18T03:28:59.236Z,99515.69
2022-11-18T03:31:51.882Z,99492.47
2022-11-18T03:34:43.602Z,99504.44
2022-11-18T03:37:14.394Z,99518.31
2022-11-18T03:39:47.964Z,99507.22
2022-11-18T03:42:25.464Z,99516.53
2022-11-18T03:44:58.823Z,99521.69
2022-11-18T03:47:33.233Z,99516.44
2022-11-18T03:50:18.093Z,99517.31
2022-11-18T03:52:47.753Z,99512.41
2022-11-18T03:55:22.073Z,99518.22
2022-11-18T03:58:03.754Z,99507.88
2022-11-18T04:00:39.142Z,99514.66
2022-11-18T04:03:07.483Z,99511.78
2022-11-18T04:05:40.064Z,99517.09
2022-11-18T04:08:20.428Z,99512.84
2022-11-18T04:10:56.102Z,99515.56
2022-11-18T04:13:30.682Z,99506.91
2022-11-18T04:15:58.604Z,99510.41
2022-11-18T04:18:26.303Z,99514.72
2022-11-18T04:20:54.402Z,99516.53
2022-11-18T04:23:22.453Z,99509.78
2022-11-18T04:25:51.526Z,99514.00
2022-11-18T04:28:19.156Z,99512.31
2022-11-18T04:30:46.896Z,99514.16
2022-11-18T04:33:14.742Z,99506.59
2022-11-18T04:35:42.503Z,99498.81
2022-11-18T04:38:10.302Z,99509.00
2022-11-18T04:40:38.112Z,99510.66
2022-11-18T04:43:05.852Z,99508.84
2022-11-18T04:45:33.952Z,99490.97
2022-11-18T04:48:03.686Z,99489.19
2022-11-18T04:50:32.237Z,99502.78
2022-11-18T04:53:00.222Z,99489.13
2022-11-18T04:55:28.205Z,99487.44
2022-11-18T04:57:55.952Z,99475.47
2022-11-18T05:00:24.205Z,99484.03
2022-11-18T05:02:51.902Z,99489.34
2022-11-18T05:05:20.342Z,99497.03
2022-11-18T05:07:48.145Z,99491.13
2022-11-18T05:10:16.443Z,99497.84
2022-11-18T05:12:50.413Z,99497.84
2022-11-18T05:15:22.024Z,99504.56
2022-11-18T05:17:49.892Z,99500.25
2022-11-18T05:20:18.016Z,99500.38
2022-11-18T05:22:45.841Z,99511.44
2022-11-18T05:25:13.713Z,99506.38
2022-11-18T05:27:41.654Z,99508.00
2022-11-18T05:30:10.293Z,99514.66
2022-11-18T05:32:38.232Z,99514.66
2022-11-18T05:35:06.763Z,99511.38
2022-11-18T05:37:34.574Z,99514.72
2022-11-18T05:40:02.414Z,99504.34
2022-11-18T05:42:48.652Z,99509.16
2022-11-18T05:45:19.752Z,99499.72
2022-11-18T05:48:04.737Z,99504.59
2022-11-18T05:50:34.941Z,99525.72
2022-11-18T05:53:04.062Z,99530.81
2022-11-18T05:55:49.013Z,99537.50
2022-11-18T05:58:16.803Z,99532.50
2022-11-18T06:00:50.422Z,99534.31
2022-11-18T06:03:30.571Z,99536.94
2022-11-18T06:06:02.502Z,99537.84
2022-11-18T06:08:36.232Z,99534.41
2022-11-18T06:11:04.803Z,99536.91
2022-11-18T06:13:41.963Z,99546.38
2022-11-18T06:16:10.145Z,99543.00
2022-11-18T06:18:39.692Z,99553.22
2022-11-18T06:21:07.612Z,99557.47
2022-11-18T06:23:38.057Z,99550.66
2022-11-18T06:26:08.374Z,99563.53
2022-11-18T06:28:37.483Z,99570.34
2022-11-18T06:31:05.622Z,99565.19
2022-11-18T06:33:33.694Z,99568.66
2022-11-18T06:36:01.663Z,99561.97
2022-11-18T06:38:29.508Z,99572.13
2022-11-18T06:41:06.215Z,99574.59
2022-11-18T06:43:42.118Z,99577.31
2022-11-18T06:46:35.655Z,99574.66
2022-11-18T06:49:03.675Z,99581.63
2022-11-18T06:51:31.313Z,99582.59
2022-11-18T06:53:58.649Z,99578.38
2022-11-18T06:56:26.442Z,99580.09
2022-11-18T06:58:58.381Z,99579.22
2022-11-18T07:01:28.578Z,99582.75
2022-11-18T07:03:59.183Z,99589.47
2022-11-18T07:06:29.050Z,99588.69
2022-11-18T07:08:57.040Z,99587.91
2022-11-18T07:11:26.537Z,99592.13
2022-11-18T07:13:54.585Z,99591.34
2022-11-18T07:16:26.397Z,99591.34
2022-11-18T07:18:54.996Z,99581.19
2022-11-18T07:21:27.951Z,99586.34
2022-11-18T07:23:56.728Z,99596.50
2022-11-18T07:26:24.448Z,99590.63
2022-11-18T07:28:51.922Z,99589.84
2022-11-18T07:31:21.206Z,99591.56
2022-11-18T07:33:49.243Z,99593.31
2022-11-18T07:36:36.052Z,99607.69
2022-11-18T07:39:07.066Z,99604.25
2022-11-18T07:41:34.583Z,99603.38
2022-11-18T07:44:03.501Z,99603.28
2022-11-18T07:46:33.353Z,99606.56
2022-11-18T07:49:03.461Z,99609.19
2022-11-18T07:51:31.640Z,99612.59
2022-11-18T07:53:58.970Z,99604.59
2022-11-18T07:56:26.355Z,99611.06
2022-11-18T07:58:56.830Z,99594.22
2022-11-18T08:01:29.286Z,99615.34
2022-11-18T08:03:57.989Z,99618.25
2022-11-18T08:06:25.316Z,99619.31
2022-11-18T08:08:53.214Z,99618.59
2022-11-18T08:11:22.868Z,99616.00
2022-11-18T08:13:52.239Z,99618.78
2022-11-18T08:16:22.570Z,99626.47
2022-11-18T08:18:50.764Z,99627.97
2022-11-18T08:21:20.227Z,99630.97
2022-11-18T08:23:56.266Z,99635.88
2022-11-18T08:26:25.307Z,99630.81
2022-11-18T08:28:53.040Z,99630.81
2022-11-18T08:31:24.612Z,99623.03
2022-11-18T08:34:00.672Z,99626.31
2022-11-18T08:36:30.851Z,99635.63
2022-11-18T08:38:58.917Z,99639.94
2022-11-18T08:41:33.037Z,99639.34
2022-11-18T08:44:01.745Z,99634.25
2022-11-18T08:46:30.207Z,99611.16
2022-11-18T08:48:58.404Z,99637.75
2022-11-18T08:51:26.850Z,99630.88
2022-11-18T08:53:54.511Z,99636.97
2022-11-18T08:56:24.317Z,99638.66
2022-11-18T08:58:52.710Z,99628.38
2022-11-18T09:01:20.377Z,99637.88
2022-11-18T09:03:49.642Z,99642.22
2022-11-18T09:06:23.091Z,99639.81
2022-11-18T09:08:50.639Z,99639.81
2022-11-18T09:11:21.337Z,99638.97
2022-11-18T09:16:45.398Z,99634.50
2022-11-18T09:19:40.148Z,99637.94
2022-11-18T09:22:00.249Z,99642.34
2022-11-18T09:24:28.465Z,99645.06
2022-11-18T09:26:55.849Z,99646.06
2022-11-18T09:29:26.472Z,99647.84
2022-11-18T09:31:54.533Z,99642.06
2022-11-18T09:34:22.959Z,99640.44
2022-11-18T09:36:51.163Z,99638.72
2022-11-18T09:39:19.329Z,99630.19
2022-11-18T09:42:01.071Z,99632.84
2022-11-18T09:44:40.669Z,99622.66
2022-11-18T09:47:30.770Z,99627.84
2022-11-18T09:50:14.853Z,99628.81
2022-11-18T09:52:51.973Z,99627.22
2022-11-18T09:55:19.971Z,99624.66
2022-11-18T09:57:55.126Z,99622.03
2022-11-18T10:00:33.390Z,99620.25
2022-11-18T10:03:10.338Z,99620.19
2022-11-18T10:05:56.505Z,99617.69
2022-11-18T10:08:29.609Z,99622.09
2022-11-18T10:11:07.955Z,99615.44
2022-11-18T10:13:35.030Z,99619.00
2022-11-18T10:16:24.583Z,99628.31
2022-11-18T10:19:17.587Z,99625.75
2022-11-18T10:22:18.049Z,99614.63
2022-11-18T10:24:54.081Z,99623.13
2022-11-18T10:27:22.323Z,99617.22
2022-11-18T10:29:54.450Z,99612.16
2022-11-18T10:32:21.762Z,99611.28
2022-11-18T10:34:53.468Z,99616.41
2022-11-18T10:38:05.730Z,99623.97
2022-11-18T10:40:28.292Z,99621.38
2022-11-18T10:42:56.049Z,99621.38
2022-11-18T10:45:23.030Z,99632.31
2022-11-18T10:48:20.965Z,99630.63
2022-11-18T10:50:55.662Z,99613.44
2022-11-18T10:53:32.253Z,99629.78
2022-11-18T10:56:01.403Z,99620.66
2022-11-18T10:58:34.710Z,99618.19
2022-11-18T11:01:14.561Z,99625.88
2022-11-18T11:03:43.641Z,99625.94
2022-11-18T11:06:20.666Z,99622.59
2022-11-18T11:08:52.260Z,99629.31
2022-11-18T11:11:43.433Z,99624.22
2022-11-18T11:14:19.504Z,99622.66
2022-11-18T11:17:05.629Z,99644.75
2022-11-18T11:19:51.612Z,99631.88
2022-11-18T11:22:18.850Z,99635.88
2022-11-18T11:24:46.219Z,99639.16
2022-11-18T11:31:18.937Z,99637.19
2022-11-18T11:33:57.635Z,99625.28
2022-11-18T11:36:40.095Z,99627.84
2022-11-18T11:39:10.197Z,99635.53
2022-11-18T11:41:52.230Z,99628.66
2022-11-18T11:44:40.204Z,99632.09
2022-11-18T11:47:42.740Z,99626.16
2022-11-18T11:50:59.995Z,99638.16
2022-11-18T11:54:12.244Z,99635.66
2022-11-18T11:56:49.377Z,99639.94
2022-11-18T11:59:29.121Z,99637.34
2022-11-18T12:02:33.552Z,99640.63
2022-11-18T12:05:09.116Z,99633.63
2022-11-18T12:07:54.418Z,99636.19
2022-11-18T12:10:37.187Z,99639.75
2022-11-18T12:13:08.978Z,99642.53
2022-11-18T12:16:30.490Z,99646.09
2022-11-18T12:19:02.941Z,99646.16
2022-11-18T12:21:47.945Z,99647.84
2022-11-18T12:24:17.932Z,99655.44
2022-11-18T12:26:47.352Z,99658.84
2022-11-18T12:29:24.705Z,99654.53
2022-11-18T12:32:04.252Z,99648.59
2022-11-18T12:34:44.986Z,99650.34
2022-11-18T12:37:20.790Z,99649.56
2022-11-18T12:39:49.543Z,99653.84
2022-11-18T12:42:55.344Z,99652.88
2022-11-18T12:45:39.008Z,99651.09
2022-11-18T12:48:30.073Z,99652.81
2022-11-18T12:51:26.821Z,99656.28
2022-11-18T12:53:54.862Z,99653.84
2022-11-18T12:56:27.748Z,99649.59
2022-11-18T12:59:00.763Z,99663.28
2022-11-18T13:01:31.355Z,99660.59
2022-11-18T13:04:13.349Z,99656.28
2022-11-18T13:06:41.190Z,99662.94
2022-11-18T13:09:19.785Z,99655.97
2022-11-18T13:11:53.152Z,99656.72
2022-11-18T13:14:52.276Z,99650.66
2022-11-18T13:17:49.944Z,99661.06
2022-11-18T13:20:25.282Z,99656.03
2022-11-18T13:23:12.804Z,99657.72
2022-11-18T13:25:42.763Z,99662.88
2022-11-18T13:28:19.577Z,99661.97
2022-11-18T13:30:57.369Z,99666.25
2022-11-18T13:33:24.450Z,99667.00
2022-11-18T13:35:51.554Z,99666.19
2022-11-18T13:38:27.750Z,99664.34
2022-11-18T13:41:15.080Z,99671.19
2022-11-18T13:43:42.212Z,99673.75
2022-11-18T13:46:18.997Z,99675.38
2022-11-18T13:48:58.143Z,99685.56
2022-11-18T13:51:26.682Z,99683.00
2022-11-18T13:53:53.882Z,99678.59
2022-11-18T13:56:27.056Z,99675.94
2022-11-18T13:59:18.112Z,99682.78
2022-11-18T14:01:47.242Z,99696.31
2022-11-18T14:04:21.366Z,99693.59
2022-11-18T14:06:49.412Z,99694.31
2022-11-18T14:09:29.570Z,99692.53
2022-11-18T14:12:05.603Z,99696.66
2022-11-18T14:14:38.545Z,99699.16
2022-11-18T14:17:25.279Z,99697.34
2022-11-18T14:19:55.430Z,99701.50
2022-11-18T14:22:24.170Z,99701.50
2022-11-18T14:25:24.690Z,99707.47
2022-11-18T14:27:53.676Z,99704.97
2022-11-18T14:30:34.584Z,99700.84
2022-11-18T14:33:24.435Z,99706.84
2022-11-18T14:36:00.137Z,99704.31
2022-11-18T14:38:52.415Z,99709.38
2022-11-18T14:41:48.510Z,99709.38
2022-11-18T14:44:16.585Z,99700.84
2022-11-18T14:46:46.558Z,99713.69
2022-11-18T14:49:17.328Z,99718.00
2022-11-18T14:51:45.436Z,99718.91
2022-11-18T14:54:23.814Z,99721.47
2022-11-18T14:56:55.903Z,99718.91
2022-11-18T14:59:23.309Z,99731.75
2022-11-18T15:01:50.522Z,99731.75
2022-11-18T15:04:18.407Z,99731.88
2022-11-18T15:06:45.856Z,99747.13
2022-11-18T15:09:13.291Z,99747.13
2022-11-18T15:11:40.473Z,99753.03
2022-11-18T15:14:07.629Z,99752.16
2022-11-18T15:16:35.682Z,99754.66
2022-11-18T15:19:04.826Z,99755.44
2022-11-18T15:21:32.689Z,99765.44
2022-11-18T15:23:59.865Z,99753.50
2022-11-18T15:26:36.115Z,99761.97
2022-11-18T15:29:03.725Z,99762.81
2022-11-18T15:31:30.831Z,99751.66
2022-11-18T15:34:03.457Z,99760.28
2022-11-18T15:36:33.864Z,99764.56
2022-11-18T15:39:01.132Z,99758.53
2022-11-18T15:41:30.030Z,99760.28
2022-11-18T15:43:59.545Z,99760.28
2022-11-18T15:46:28.148Z,99760.28
2022-11-18T15:48:56.517Z,99761.97
2022-11-18T15:51:25.294Z,99770.50
2022-11-18T15:53:52.678Z,99768.78
2022-11-18T15:56:19.720Z,99770.50
2022-11-18T15:58:56.342Z,99776.47
2022-11-18T16:01:28.234Z,99773.06
2022-11-18T16:03:55.829Z,99777.38
2022-11-18T16:06:23.459Z,99776.53
2022-11-18T16:08:55.874Z,99787.56
2022-11-18T16:11:46.709Z,99777.31
2022-11-18T16:14:15.654Z,99782.41
2022-11-18T16:16:44.060Z,99778.94
2022-11-18T16:19:13.600Z,99789.97
2022-11-18T16:21:43.119Z,99789.06
2022-11-18T16:24:14.926Z,99794.06
2022-11-18T16:26:42.061Z,99792.31
2022-11-18T16:29:11.998Z,99790.56
2022-11-18T16:31:43.903Z,99800.72
2022-11-18T16:34:16.255Z,99807.56
2022-11-18T16:36:45.999Z,99809.28
2022-11-18T16:39:14.244Z,99819.44
2022-11-18T16:41:42.875Z,99822.81
2022-11-18T16:44:12.961Z,99816.84
2022-11-18T16:46:41.045Z,99820.16
2022-11-18T16:49:12.388Z,99820.28
2022-11-18T16:51:42.824Z,99823.69
2022-11-18T16:54:19.881Z,99825.44
2022-11-18T16:56:48.142Z,99819.53
2022-11-18T16:59:18.043Z,99824.53
2022-11-18T17:01:45.452Z,99826.19
2022-11-18T17:04:12.759Z,99836.28
2022-11-18T17:06:40.861Z,99827.75
2022-11-18T17:09:12.582Z,99826.09
2022-11-18T17:11:39.728Z,99832.81
2022-11-18T17:14:06.799Z,99832.59
2022-11-18T17:16:35.950Z,99836.00
2022-11-18T17:19:10.101Z,99834.31
2022-11-18T17:21:38.995Z,99835.22
2022-11-18T17:24:07.999Z,99845.44
2022-11-18T17:26:35.628Z,99839.47
2022-11-18T17:29:02.717Z,99837.69
2022-11-18T17:31:29.960Z,99842.84
2022-11-18T17:33:57.121Z,99848.09
2022-11-18T17:36:26.322Z,99850.63
2022-11-18T17:38:55.773Z,99827.31
2022-11-18T17:41:43.490Z,99859.94
2022-11-18T17:44:12.795Z,99852.13
2022-11-18T17:46:40.489Z,99857.25
2022-11-18T17:49:13.711Z,99861.50
2022-11-18T17:51:41.268Z,99859.53
2022-11-18T17:54:09.582Z,99863.91
2022-11-18T17:56:36.701Z,99858.03
2022-11-18T17:59:03.984Z,99858.03
2022-11-18T18:01:31.184Z,99874.13
2022-11-18T18:03:58.453Z,99868.06
2022-11-18T18:06:27.029Z,99868.84
2022-11-18T18:09:00.410Z,99871.31
2022-11-18T18:11:28.004Z,99873.06
2022-11-18T18:14:13.984Z,99868.78
2022-11-18T18:16:45.194Z,99869.69
2022-11-18T18:19:20.574Z,99874.84
2022-11-18T18:21:48.516Z,99874.78
2022-11-18T18:24:18.604Z,99884.19
2022-11-18T18:26:45.952Z,99891.81
2022-11-18T18:29:13.521Z,99874.78
2022-11-18T18:31:40.909Z,99886.75
2022-11-18T18:34:08.232Z,99890.03
2022-11-18T18:36:35.685Z,99893.41
2022-11-18T18:39:03.353Z,99895.03
2022-11-18T18:41:31.316Z,99896.84
2022-11-18T18:43:58.661Z,99893.50
2022-11-18T18:46:31.025Z,99896.81
2022-11-18T18:49:11.760Z,99897.63
2022-11-18T18:51:41.228Z,99907.00
2022-11-18T18:54:11.976Z,99901.91
2022-11-18T18:56:39.317Z,99895.03
2022-11-18T18:59:07.510Z,99909.53
2022-11-18T19:01:34.742Z,99900.13
2022-11-18T19:04:04.221Z,99911.28
2022-11-18T19:06:58.451Z,99908.66
2022-11-18T19:09:22.461Z,99909.56
2022-11-18T19:12:08.224Z,99918.84
2022-11-18T19:14:35.749Z,99923.03
2022-11-18T19:17:09.562Z,99922.97
2022-11-18T19:19:56.973Z,99922.09
2022-11-18T19:22:24.532Z,99917.78
2022-11-18T19:24:52.009Z,99921.94
2022-11-18T19:27:20.068Z,99921.88
2022-11-18T19:29:47.499Z,99921.66
2022-11-18T19:32:15.303Z,99921.34
2022-11-18T19:34:42.573Z,99912.72
2022-11-18T19:37:09.881Z,99928.97
2022-11-18T19:39:38.748Z,99922.88
2022-11-18T19:42:06.342Z,99931.22
2022-11-18T19:44:33.660Z,99937.09
2022-11-18T19:47:00.779Z,99930.97
2022-11-18T19:49:27.950Z,99935.88
2022-11-18T19:51:55.066Z,99939.13
2022-11-18T19:54:22.330Z,99937.34
2022-11-18T19:56:49.442Z,99938.97
2022-11-18T19:59:16.798Z,99945.56
2022-11-18T20:01:44.210Z,99942.03
2022-11-18T20:04:11.487Z,99941.00
2022-11-18T20:06:39.348Z,99946.09
2022-11-18T20:09:11.350Z,99952.00
2022-11-18T20:11:38.685Z,99951.72
2022-11-18T20:14:07.317Z,99950.97
2022-11-18T20:16:36.801Z,99963.59
2022-11-18T20:19:10.505Z,99961.16
2022-11-18T20:21:39.463Z,99962.00
2022-11-18T20:24:07.936Z,99958.63
2022-11-18T20:26:37.707Z,99963.69
2022-11-18T20:29:06.309Z,99968.69
2022-11-18T20:31:34.050Z,99973.66
2022-11-18T20:34:01.842Z,99971.63
2022-11-18T20:36:31.947Z,99978.47
2022-11-18T20:39:01.168Z,99969.59
2022-11-18T20:41:32.468Z,99972.06
2022-11-18T20:44:00.710Z,99979.84
2022-11-18T20:46:28.348Z,99976.34
2022-11-18T20:48:55.950Z,99976.44
2022-11-18T20:51:25.288Z,99974.69
2022-11-18T20:53:54.039Z,99980.66
2022-11-18T20:56:24.236Z,99983.13
2022-11-18T20:58:51.510Z,99983.03
2022-11-18T21:01:21.970Z,99984.66
2022-11-18T21:03:54.679Z,99987.91
2022-11-18T21:06:27.284Z,99993.09
2022-11-18T21:08:59.534Z,99984.56
2022-11-18T21:11:27.473Z,99993.19
2022-11-18T21:14:16.025Z,99989.69
2022-11-18T21:16:46.271Z,100001.59
2022-11-18T21:19:13.785Z,99987.69
2022-11-18T21:21:49.089Z,100006.56
2022-11-18T21:24:43.707Z,100008.22
2022-11-18T21:27:10.870Z,100010.59
2022-11-18T21:29:37.969Z,100009.72
2022-11-18T21:32:05.377Z,100018.22
2022-11-18T21:34:32.561Z,100011.44
2022-11-18T21:36:59.804Z,100006.06
2022-11-18T21:39:27.669Z,100017.00
2022-11-18T21:41:57.324Z,100014.28
2022-11-18T21:44:28.487Z,100015.03
2022-11-18T21:46:55.973Z,99962.69
2022-11-18T21:49:23.218Z,100016.13
2022-11-18T21:51:50.629Z,100016.00
2022-11-18T21:54:18.538Z,100014.16
2022-11-18T21:56:45.730Z,100015.69
2022-11-18T21:59:12.828Z,100012.13
2022-11-18T22:01:39.897Z,100012.00
2022-11-18T22:04:07.468Z,100013.72
2022-11-18T22:06:35.345Z,100012.88
2022-11-18T22:09:04.270Z,100018.75
2022-11-18T22:11:31.509Z,100014.63
2022-11-18T22:13:58.892Z,100022.16
2022-11-18T22:16:27.306Z,100015.47
2022-11-18T22:19:01.406Z,100027.16
2022-11-18T22:21:32.345Z,100015.28
2022-11-18T22:24:01.093Z,100013.63
2022-11-18T22:26:29.240Z,100016.06
2022-11-18T22:28:58.209Z,100025.28
2022-11-18T22:31:27.231Z,100020.84
2022-11-18T22:33:56.632Z,100021.59
2022-11-18T22:36:26.509Z,100019.63
2022-11-18T22:38:54.241Z,100016.00
2022-11-18T22:41:42.174Z,100014.13
2022-11-18T22:44:10.407Z,100013.81
2022-11-18T22:46:39.083Z,100013.81
2022-11-18T22:49:07.732Z,100012.78
2022-11-18T22:51:38.613Z,100021.78
2022-11-18T22:56:55.002Z,100031.44
2022-11-18T22:59:22.749Z,100021.19
2022-11-18T23:01:53.397Z,100019.69
2022-11-18T23:04:20.689Z,100024.13
2022-11-18T23:06:49.028Z,100027.66
2022-11-18T23:09:17.248Z,100027.53
2022-11-18T23:12:03.124Z,100022.31
2022-11-18T23:14:30.410Z,100028.22
2022-11-18T23:16:57.671Z,100033.41
2022-11-18T23:19:24.862Z,100029.06
2022-11-18T23:21:52.018Z,100027.88
2022-11-18T23:24:20.213Z,100009.78
2022-11-18T23:26:48.150Z,100032.06
2022-11-18T23:29:16.059Z,100035.53
2022-11-18T23:31:44.838Z,100027.00
2022-11-18T23:34:12.999Z,100036.16
2022-11-18T23:36:40.370Z,100031.31
2022-11-18T23:39:07.880Z,100035.53
2022-11-18T23:41:35.467Z,100031.44
2022-11-18T23:44:02.792Z,100032.47
2022-11-18T23:46:30.095Z,100025.00
2022-11-18T23:48:57.401Z,100029.94
2022-11-18T23:51:25.775Z,100016.88
2022-11-18T23:53:55.717Z,100019.00
2022-11-18T23:56:25.290Z,100025.53
2022-11-18T23:58:54.413Z,100029.00
